Time;durP1;ratioP1;P1;durP2;ratioP2;P2;SDS_P1;SDS_P2;PMS_P1;PMS_P2;Temp;Humidity;BMP_temperature;BMP_pressure;BME280_temperature;BME280_humidity;BME280_pressure;Samples;Min_cycle;Max_cycle;Signal;HPM_P1;HPM_P2
2023/10/03 00:01:04;;;;;;;8.23;3.58;;;;;;;10.84;82.88;99591.50;4840626;29;20048;-72
2023/10/03 00:03:30;;;;;;;7.15;3.30;;;;;;;10.90;83.34;99576.88;4853848;29;20040;-70
2023/10/03 00:05:55;;;;;;;8.30;3.88;;;;;;;10.96;83.75;99600.41;4860755;29;20040;-72
2023/10/03 00:08:22;;;;;;;6.50;3.55;;;;;;;11.04;84.17;99575.88;4859336;29;20519;-70
2023/10/03 00:10:47;;;;;;;8.50;3.65;;;;;;;11.11;83.73;99583.28;4859368;29;20049;-73
2023/10/03 00:13:13;;;;;;;7.78;3.83;;;;;;;11.16;83.58;99580.28;4860605;29;20056;-71
2023/10/03 00:15:43;;;;;;;9.80;3.90;;;;;;;11.17;83.52;99596.16;4843319;29;20062;-74
2023/10/03 00:18:13;;;;;;;12.18;4.53;;;;;;;11.17;82.85;99585.47;4860910;29;20397;-72
2023/10/03 00:20:39;;;;;;;7.43;3.50;;;;;;;11.10;83.27;99586.91;4859446;29;20041;-71
2023/10/03 00:23:05;;;;;;;12.43;4.13;;;;;;;11.00;83.10;99564.56;4856579;29;20055;-72
2023/10/03 00:25:30;;;;;;;9.43;3.78;;;;;;;10.88;83.09;99581.47;4837347;29;20064;-71
2023/10/03 00:27:59;;;;;;;6.00;3.30;;;;;;;10.75;83.36;99581.50;4858909;29;20052;-73
2023/10/03 00:30:27;;;;;;;6.40;2.58;;;;;;;10.64;83.96;99584.13;4828267;29;20063;-75
2023/10/03 00:33:02;;;;;;;4.30;2.92;;;;;;;10.53;84.64;99571.56;4860754;29;20794;-75
2023/10/03 00:35:28;;;;;;;5.65;3.03;;;;;;;10.42;85.14;99600.81;4843808;29;20428;-75
2023/10/03 00:37:54;;;;;;;4.63;3.17;;;;;;;10.33;85.52;99582.81;4859217;29;20874;-72
2023/10/03 00:43:00;;;;;;;6.78;3.28;;;;;;;10.19;87.07;99583.78;4847729;29;20428;-76
2023/10/03 00:45:29;;;;;;;5.80;3.35;;;;;;;10.13;87.12;99583.34;4832210;29;20538;-73
2023/10/03 00:48:02;;;;;;;7.43;4.05;;;;;;;10.06;88.00;99574.06;4865340;29;20760;-76
2023/10/03 00:50:31;;;;;;;8.23;3.08;;;;;;;10.04;88.08;99589.31;4846902;29;20057;-72
2023/10/03 00:53:00;;;;;;;4.13;3.05;;;;;;;9.98;88.76;99584.41;4864475;29;20053;-72
2023/10/03 00:55:28;;;;;;;3.97;3.13;;;;;;;9.93;88.85;99586.56;4863487;29;20049;-71
2023/10/03 00:58:06;;;;;;;7.93;3.38;;;;;;;9.88;89.31;99596.66;4850650;29;20048;-75
2023/10/03 01:00:37;;;;;;;6.28;3.28;;;;;;;9.84;89.63;99604.00;4847142;29;20060;-72
2023/10/03 01:03:03;;;;;;;6.28;3.65;;;;;;;9.80;90.39;99594.53;4846718;29;20048;-74
2023/10/03 01:05:29;;;;;;;9.07;3.20;;;;;;;9.76;90.59;99585.91;4862800;29;20059;-76
2023/10/03 01:07:54;;;;;;;8.85;3.60;;;;;;;9.69;90.39;99605.94;4864829;29;20044;-78
2023/10/03 01:10:20;;;;;;;7.10;3.38;;;;;;;9.67;91.03;99586.53;4833539;29;20055;-78
2023/10/03 01:12:46;;;;;;;5.30;2.63;;;;;;;9.61;91.38;99592.28;4862908;29;20070;-77
2023/10/03 01:15:15;;;;;;;6.97;3.45;;;;;;;9.58;91.78;99587.19;4848694;29;20067;-78
2023/10/03 01:17:43;;;;;;;7.72;2.95;;;;;;;9.55;91.75;99591.84;4865120;29;20055;-77
2023/10/03 01:20:21;;;;;;;4.10;2.72;;;;;;;9.50;92.44;99597.47;4862431;29;20052;-76
2023/10/03 01:22:48;;;;;;;4.63;3.03;;;;;;;9.44;92.55;99579.28;4846579;29;20048;-78
2023/10/03 01:25:16;;;;;;;3.72;2.83;;;;;;;9.42;92.59;99599.81;4864206;29;20052;-77
2023/10/03 01:27:41;;;;;;;4.93;2.85;;;;;;;9.36;93.09;99613.53;4864962;29;20056;-80
2023/10/03 01:30:08;;;;;;;4.20;2.83;;;;;;;9.36;93.29;99592.25;4864495;29;20055;-77
2023/10/03 01:32:38;;;;;;;8.10;3.20;;;;;;;9.39;93.31;99597.34;4847425;29;20052;-78
2023/10/03 01:35:08;;;;;;;7.55;2.83;;;;;;;9.47;94.12;99584.41;4854421;29;20051;-78
2023/10/03 01:37:33;;;;;;;4.68;2.95;;;;;;;9.55;94.29;99595.38;4864095;29;20063;-78
2023/10/03 01:39:59;;;;;;;3.90;3.08;;;;;;;9.65;94.29;99588.47;4846403;29;20397;-75
2023/10/03 01:42:24;;;;;;;4.55;2.72;;;;;;;9.75;95.13;99589.53;4845073;29;20056;-78
2023/10/03 01:44:50;;;;;;;6.03;2.85;;;;;;;9.87;95.33;99586.97;4864604;29;20051;-72
2023/10/03 01:47:15;;;;;;;8.45;3.40;;;;;;;9.99;94.95;99581.66;4846305;29;20060;-73
2023/10/03 01:49:40;;;;;;;5.40;2.85;;;;;;;10.09;93.50;99603.16;4862866;29;20048;-72
2023/10/03 01:52:06;;;;;;;8.63;3.10;;;;;;;10.17;92.76;99584.81;4863116;29;20405;-68
2023/10/03 01:54:33;;;;;;;4.50;2.95;;;;;;;10.25;92.30;99587.00;4864049;29;20056;-73
2023/10/03 01:57:00;;;;;;;3.78;2.35;;;;;;;10.30;91.31;99601.66;4860781;29;20061;-72
2023/10/03 01:59:25;;;;;;;8.05;3.85;;;;;;;10.35;90.38;99594.22;4859222;29;21270;-72
2023/10/03 02:01:50;;;;;;;7.00;2.90;;;;;;;10.39;90.29;99589.50;4830109;29;20048;-71
2023/10/03 02:04:16;;;;;;;10.77;3.17;;;;;;;10.45;89.64;99594.41;4861012;29;20420;-71
2023/10/03 02:06:42;;;;;;;6.50;3.00;;;;;;;10.49;89.19;99588.75;4860492;29;20048;-71
2023/10/03 02:09:08;;;;;;;6.32;3.42;;;;;;;10.55;88.54;99552.78;4863054;29;20052;-71
2023/10/03 02:11:34;;;;;;;6.78;3.28;;;;;;;10.58;88.47;99589.06;4845904;29;20055;-70
2023/10/03 02:14:02;;;;;;;4.95;3.10;;;;;;;10.62;87.55;99590.50;4846142;29;20416;-71
2023/10/03 02:16:28;;;;;;;6.00;2.88;;;;;;;10.63;87.33;99618.88;4861709;29;20045;-73
2023/10/03 02:18:55;;;;;;;7.38;3.65;;;;;;;10.65;86.69;99611.63;4861661;29;20057;-70
2023/10/03 02:21:20;;;;;;;5.10;3.47;;;;;;;10.63;86.81;99587.75;4846159;29;20053;-72
2023/10/03 02:23:47;;;;;;;9.13;3.95;;;;;;;10.63;86.46;99594.88;4845920;29;20059;-73
2023/10/03 02:26:13;;;;;;;7.70;3.13;;;;;;;10.61;86.04;99600.31;4861710;29;20488;-72
2023/10/03 02:28:40;;;;;;;8.10;3.65;;;;;;;10.61;85.62;99631.50;4861361;29;20056;-70
2023/10/03 02:31:10;;;;;;;5.60;3.15;;;;;;;10.58;86.00;99605.03;4862586;29;20048;-71
2023/10/03 02:33:41;;;;;;;8.27;3.42;;;;;;;10.61;85.70;99610.97;4862571;29;20059;-70
2023/10/03 02:36:08;;;;;;;5.32;3.30;;;;;;;10.61;85.65;99605.66;4861131;29;20045;-70
2023/10/03 02:38:36;;;;;;;7.03;3.80;;;;;;;10.64;85.18;99607.25;4844980;29;20063;-70
2023/10/03 02:41:06;;;;;;;6.65;3.38;;;;;;;10.62;85.28;99617.16;4845608;29;20052;-72
2023/10/03 02:43:36;;;;;;;6.10;3.15;;;;;;;10.63;85.15;99616.22;4840986;29;20053;-72
2023/10/03 02:46:04;;;;;;;8.38;3.28;;;;;;;10.62;84.85;99612.69;4845027;29;20048;-71
2023/10/03 02:48:31;;;;;;;7.55;3.33;;;;;;;10.60;84.72;99603.13;4861288;29;20053;-72
2023/10/03 02:50:57;;;;;;;5.97;2.83;;;;;;;10.59;84.56;99620.09;4864542;29;20048;-71
2023/10/03 02:53:22;;;;;;;7.95;3.42;;;;;;;10.57;84.56;99619.34;4864161;29;20052;-75
2023/10/03 02:55:49;;;;;;;6.95;3.20;;;;;;;10.53;84.22;99586.69;4864556;29;20736;-75
2023/10/03 02:58:16;;;;;;;7.18;3.05;;;;;;;10.49;84.26;99638.56;4864366;29;20060;-73
2023/10/03 03:00:43;;;;;;;6.60;3.25;;;;;;;10.49;84.44;99628.75;4842561;29;20064;-72
2023/10/03 03:03:10;;;;;;;8.57;3.85;;;;;;;10.53;84.29;99613.34;4846435;29;20534;-74
2023/10/03 03:05:37;;;;;;;6.10;3.53;;;;;;;10.49;83.49;99623.41;4846339;29;20052;-72
2023/10/03 03:08:22;;;;;;;6.05;2.95;;;;;;;10.54;83.29;99615.06;4861840;29;20076;-73
2023/10/03 03:10:55;;;;;;;;;;;;;;;10.63;83.09;99603.72;4861380;29;20095;-71
2023/10/03 03:13:21;;;;;;;6.20;3.10;;;;;;;10.51;83.27;99605.47;4859207;29;19919;-71
2023/10/03 03:15:59;;;;;;;6.80;2.60;;;;;;;10.48;82.84;99605.72;4861357;29;20060;-70
2023/10/03 03:18:42;;;;;;;4.57;2.85;;;;;;;10.46;82.77;99601.44;4862005;29;20057;-72
2023/10/03 03:21:13;;;;;;;4.78;2.53;;;;;;;10.43;82.45;99597.19;4860479;29;20053;-71
2023/10/03 03:23:43;;;;;;;4.45;2.63;;;;;;;10.34;82.07;99597.84;4844995;29;20079;-71
2023/10/03 03:28:35;;;;;;;5.53;3.20;;;;;;;10.16;81.74;99601.75;4863364;29;20056;-71
2023/10/03 03:31:01;;;;;;;6.80;3.03;;;;;;;10.02;82.37;99594.75;4861892;29;20052;-70
2023/10/03 03:33:27;;;;;;;4.00;2.50;;;;;;;9.92;82.51;99604.34;4844962;29;20057;-70
2023/10/03 03:35:54;;;;;;;7.38;2.65;;;;;;;9.83;83.00;99613.81;4868601;29;20538;-68
2023/10/03 03:38:20;;;;;;;8.70;2.95;;;;;;;9.77;83.61;99614.25;4874697;29;20040;-69
2023/10/03 03:40:59;;;;;;;8.07;3.30;;;;;;;9.76;84.34;99622.31;4876701;29;20048;-71
2023/10/03 03:43:25;;;;;;;4.32;2.60;;;;;;;9.73;84.61;99617.19;4868644;29;20051;-71
2023/10/03 03:45:51;;;;;;;7.43;3.22;;;;;;;9.71;84.79;99604.00;4864166;29;20047;-71
2023/10/03 03:48:19;;;;;;;9.63;3.40;;;;;;;9.73;85.06;99617.19;4862795;29;20079;-71
2023/10/03 03:50:44;;;;;;;7.97;3.72;;;;;;;9.72;85.19;99620.81;4862791;29;20055;-72
2023/10/03 03:53:10;;;;;;;5.45;3.55;;;;;;;9.71;84.91;99625.28;4844640;29;20527;-70
2023/10/03 03:55:37;;;;;;;4.50;3.33;;;;;;;9.69;85.38;99621.91;4860872;29;20055;-72
2023/10/03 03:58:11;;;;;;;10.07;3.65;;;;;;;9.72;85.69;99621.69;4859621;29;20083;-72
2023/10/03 04:00:38;;;;;;;8.27;3.38;;;;;;;9.74;85.45;99614.44;4844248;29;20052;-70
2023/10/03 04:03:08;;;;;;;4.82;2.90;;;;;;;9.73;85.74;99614.53;4844108;29;20056;-71
2023/10/03 04:05:34;;;;;;;6.38;3.25;;;;;;;9.74;85.59;99611.78;4859820;29;20056;-70
2023/10/03 04:08:00;;;;;;;6.93;3.20;;;;;;;9.73;85.40;99602.09;4859962;29;20045;-71
2023/10/03 04:10:26;;;;;;;7.25;3.95;;;;;;;9.71;85.16;99614.66;4859858;29;20055;-72
2023/10/03 04:12:52;;;;;;;7.97;3.60;;;;;;;9.72;85.41;99616.34;4859874;29;20048;-70
2023/10/03 04:15:20;;;;;;;6.65;3.65;;;;;;;9.76;85.26;99622.31;4859494;29;20068;-70
2023/10/03 04:17:46;;;;;;;9.15;4.35;;;;;;;9.82;85.43;99632.53;4843638;29;20072;-70
2023/10/03 04:22:50;;;;;;;8.07;3.40;;;;;;;9.87;84.67;99619.78;4844082;29;20052;-72
2023/10/03 04:25:19;;;;;;;6.85;3.63;;;;;;;9.95;84.16;99616.56;4859701;29;20055;-71
2023/10/03 04:27:51;;;;;;;5.97;3.00;;;;;;;10.05;84.36;99676.22;4843375;29;20538;-70
2023/10/03 04:30:16;;;;;;;5.57;3.33;;;;;;;10.17;83.72;99627.44;4861140;29;20511;-70
2023/10/03 04:32:47;;;;;;;7.47;3.22;;;;;;;10.24;82.78;99623.44;4859583;29;20501;-70
2023/10/03 04:35:13;;;;;;;5.95;3.58;;;;;;;10.24;82.23;99622.59;4859825;29;20055;-71
2023/10/03 04:37:43;;;;;;;5.53;3.33;;;;;;;10.22;82.09;99620.03;4860930;29;20901;-70
2023/10/03 04:40:21;;;;;;;10.27;3.63;;;;;;;10.19;82.03;99629.06;4844180;29;20068;-70
2023/10/03 04:42:47;;;;;;;8.55;3.78;;;;;;;10.15;81.60;99634.72;4862740;29;20044;-69
2023/10/03 04:45:14;;;;;;;16.20;3.92;;;;;;;10.18;81.50;99639.84;4846306;29;20063;-69
2023/10/03 04:47:45;;;;;;;9.75;4.97;;;;;;;10.28;82.01;99650.69;4859964;29;20075;-70
2023/10/03 04:50:11;;;;;;;9.57;3.67;;;;;;;10.50;81.49;99645.56;4859645;29;20044;-71
2023/10/03 04:52:41;;;;;;;7.97;4.03;;;;;;;10.66;80.45;99661.31;4860773;29;20068;-71
2023/10/03 04:55:07;;;;;;;7.43;3.83;;;;;;;10.94;79.44;99644.19;4844235;29;20056;-71
2023/10/03 04:57:32;;;;;;;7.15;3.95;;;;;;;11.27;78.54;99625.69;4861492;29;20119;-71
2023/10/03 04:59:59;;;;;;;8.98;3.72;;;;;;;11.64;76.56;99637.09;4860903;29;20052;-71
2023/10/03 05:02:30;;;;;;;8.30;4.45;;;;;;;11.97;73.59;99625.69;4860654;29;20044;-70
2023/10/03 05:04:56;;;;;;;5.30;3.28;;;;;;;12.15;71.99;99629.63;4859802;29;20393;-70
2023/10/03 05:07:23;;;;;;;15.25;3.95;;;;;;;12.33;71.78;99640.69;4844198;29;20428;-71
2023/10/03 05:09:51;;;;;;;7.13;3.72;;;;;;;12.58;71.29;99631.56;4844122;29;20075;-73
2023/10/03 05:12:16;;;;;;;10.25;4.15;;;;;;;12.97;70.54;99611.47;4845786;29;20401;-70
2023/10/03 05:14:41;;;;;;;5.72;3.13;;;;;;;13.47;67.73;99619.81;4844151;29;20056;-71
2023/10/03 05:17:07;;;;;;;7.13;3.47;;;;;;;13.93;66.13;99623.00;4844616;29;20527;-72
2023/10/03 05:19:32;;;;;;;8.57;3.95;;;;;;;14.34;64.26;99615.88;4861193;29;20049;-71
2023/10/03 05:21:58;;;;;;;4.47;3.53;;;;;;;14.70;63.07;99596.56;4859337;29;20043;-72
2023/10/03 05:24:23;;;;;;;9.35;4.03;;;;;;;14.94;61.82;99603.41;4860406;29;20052;-71
2023/10/03 05:26:49;;;;;;;14.10;3.70;;;;;;;14.70;59.73;99604.59;4843410;29;20448;-70
2023/10/03 05:29:16;;;;;;;6.20;3.30;;;;;;;14.50;60.19;99605.53;4863437;29;20052;-70
2023/10/03 05:31:42;;;;;;;7.30;4.15;;;;;;;14.49;60.19;99610.03;4846678;29;20405;-70
2023/10/03 05:34:08;;;;;;;11.27;3.83;;;;;;;14.75;59.54;99614.94;4846851;29;20075;-71
2023/10/03 05:36:33;;;;;;;7.18;3.83;;;;;;;14.92;59.59;99598.16;4862623;29;20055;-71
2023/10/03 05:38:58;;;;;;;11.10;4.15;;;;;;;14.80;56.95;99601.94;4846777;29;20052;-73
2023/10/03 05:41:24;;;;;;;7.07;3.50;;;;;;;14.76;57.52;99596.03;4862740;29;20060;-70
2023/10/03 05:43:50;;;;;;;7.93;3.35;;;;;;;15.04;57.52;99604.25;4847122;29;20059;-71
2023/10/03 05:46:15;;;;;;;10.27;4.35;;;;;;;15.63;56.22;99600.66;4863692;29;20792;-70
2023/10/03 05:48:42;;;;;;;8.60;4.07;;;;;;;16.39;54.43;99606.84;4862586;29;20044;-70
2023/10/03 05:51:08;;;;;;;9.48;3.50;;;;;;;17.23;52.18;99594.94;4846617;29;20063;-70
2023/10/03 05:53:34;;;;;;;7.57;3.55;;;;;;;17.82;49.99;99612.34;4862423;29;20052;-71
2023/10/03 05:55:59;;;;;;;8.07;3.90;;;;;;;18.25;48.25;99616.03;4846384;29;20420;-70
2023/10/03 05:58:24;;;;;;;5.82;3.75;;;;;;;18.57;46.86;99604.56;4845843;29;20500;-71
2023/10/03 06:00:50;;;;;;;7.30;4.03;;;;;;;18.71;45.40;99617.50;4863556;29;20045;-72
2023/10/03 06:03:15;;;;;;;6.85;4.20;;;;;;;19.02;46.38;99604.25;4863311;29;20055;-69
2023/10/03 06:05:41;;;;;;;7.65;4.05;;;;;;;19.50;44.98;99590.03;4862311;29;20389;-70
2023/10/03 06:08:07;;;;;;;7.15;3.15;;;;;;;19.96;43.13;99603.91;4862220;29;20045;-75
2023/10/03 06:10:32;;;;;;;7.22;3.83;;;;;;;19.64;42.36;99599.34;4863167;29;20044;-69
2023/10/03 06:12:57;;;;;;;7.50;4.00;;;;;;;19.38;43.50;99607.56;4863178;29;20056;-71
2023/10/03 06:15:24;;;;;;;13.25;4.00;;;;;;;19.79;43.25;99621.97;4861842;29;20051;-73
2023/10/03 06:17:49;;;;;;;9.52;4.40;;;;;;;20.61;42.47;99610.88;4846478;29;20063;-73
2023/10/03 06:20:14;;;;;;;7.75;3.60;;;;;;;21.50;40.48;99597.91;4863094;29;20060;-73
2023/10/03 06:22:40;;;;;;;4.40;3.53;;;;;;;22.38;39.12;99603.59;4862108;29;20040;-72
2023/10/03 06:25:07;;;;;;;8.30;4.13;;;;;;;23.32;36.37;99597.31;4846467;29;20051;-72
2023/10/03 06:27:32;;;;;;;5.55;3.38;;;;;;;24.28;35.07;99597.81;4861854;29;20049;-73
2023/10/03 06:29:57;;;;;;;13.07;3.75;;;;;;;25.16;33.27;99583.44;4862525;29;20416;-72
2023/10/03 06:32:22;;;;;;;7.20;3.97;;;;;;;25.95;31.90;99614.47;4862560;29;20044;-72
2023/10/03 06:34:48;;;;;;;8.13;4.47;;;;;;;26.74;31.60;99575.28;4862625;29;20060;-72
2023/10/03 06:37:13;;;;;;;9.50;4.18;;;;;;;27.32;29.72;99583.44;4860708;29;20420;-71
2023/10/03 06:39:39;;;;;;;7.88;4.05;;;;;;;27.80;28.61;99579.16;4862095;29;20071;-72
2023/10/03 06:42:05;;;;;;;6.93;4.32;;;;;;;28.29;28.08;99568.44;4845640;29;20048;-72
2023/10/03 06:44:30;;;;;;;12.30;4.55;;;;;;;28.68;27.70;99594.59;4862211;29;20049;-72
2023/10/03 06:46:55;;;;;;;6.68;4.53;;;;;;;28.92;27.39;99606.63;4862366;29;20048;-71
2023/10/03 06:49:23;;;;;;;12.90;4.63;;;;;;;28.79;26.81;99581.00;4862292;29;20048;-72
2023/10/03 06:51:50;;;;;;;5.30;4.22;;;;;;;28.69;26.56;99585.31;4861021;29;20044;-72
2023/10/03 06:54:16;;;;;;;6.45;4.80;;;;;;;28.95;26.11;99595.19;4866969;29;20149;-71
2023/10/03 06:56:41;;;;;;;10.68;3.85;;;;;;;29.22;25.71;99588.28;4845102;29;20052;-70
2023/10/03 06:59:10;;;;;;;4.63;3.70;;;;;;;29.53;25.23;99584.50;4862244;29;20052;-72
2023/10/03 07:01:36;;;;;;;8.02;3.63;;;;;;;29.96;25.06;99581.53;4860889;29;20420;-70
2023/10/03 07:04:02;;;;;;;8.52;4.50;;;;;;;30.12;24.16;99580.00;4845270;29;20053;-70
2023/10/03 07:06:28;;;;;;;5.05;4.15;;;;;;;30.03;24.00;99576.75;4862403;29;20045;-71
2023/10/03 07:08:53;;;;;;;6.75;3.50;;;;;;;30.05;23.82;99593.00;4845198;29;20053;-70
2023/10/03 07:11:18;;;;;;;7.82;5.13;;;;;;;30.57;23.67;99588.53;4862413;29;20044;-71
2023/10/03 07:13:44;;;;;;;5.43;4.28;;;;;;;31.17;23.21;99580.72;4845178;29;20059;-71
2023/10/03 07:16:09;;;;;;;5.45;3.50;;;;;;;31.73;22.69;99587.31;4861710;29;20048;-70
2023/10/03 07:18:35;;;;;;;6.80;4.45;;;;;;;32.08;21.98;99585.19;4860837;29;20064;-72
2023/10/03 07:21:03;;;;;;;11.07;4.47;;;;;;;32.44;21.79;99564.53;4861965;29;20048;-70
2023/10/03 07:23:29;;;;;;;4.95;3.38;;;;;;;32.61;21.40;99566.44;4860660;29;20059;-72
2023/10/03 07:25:54;;;;;;;9.18;3.47;;;;;;;32.43;21.37;99562.03;4860646;29;20041;-72
2023/10/03 07:28:19;;;;;;;6.30;5.13;;;;;;;32.63;21.17;99558.69;4844905;29;20048;-73
2023/10/03 07:30:45;;;;;;;6.32;4.00;;;;;;;32.99;20.97;99577.44;4860675;29;20523;-72
2023/10/03 07:33:11;;;;;;;6.63;4.25;;;;;;;33.40;20.48;99564.97;4860248;29;20048;-73
2023/10/03 07:35:41;;;;;;;5.13;3.97;;;;;;;33.19;20.34;99563.88;4861719;29;20531;-72
2023/10/03 07:38:06;;;;;;;9.55;3.97;;;;;;;32.92;20.36;99563.00;4862298;29;20040;-70
2023/10/03 07:40:31;;;;;;;5.95;3.47;;;;;;;32.59;20.94;99563.91;4860872;29;20052;-71
2023/10/03 07:42:56;;;;;;;4.03;3.42;;;;;;;32.84;20.89;99571.75;4861729;29;20056;-72
2023/10/03 07:45:22;;;;;;;7.65;3.83;;;;;;;33.36;20.54;99560.22;4860638;29;20048;-72
2023/10/03 07:47:50;;;;;;;4.13;3.70;;;;;;;33.86;19.83;99557.97;4862462;29;20040;-73
2023/10/03 07:50:15;;;;;;;6.43;3.75;;;;;;;34.52;19.30;99549.34;4860064;29;20052;-74
2023/10/03 07:52:44;;;;;;;7.45;4.45;;;;;;;34.77;18.97;99554.19;4861398;29;20067;-74
2023/10/03 07:55:11;;;;;;;4.75;4.22;;;;;;;35.23;18.45;99557.97;4861892;29;20048;-74
2023/10/03 07:57:37;;;;;;;5.78;4.13;;;;;;;35.72;18.33;99540.91;4879999;29;20056;-74
2023/10/03 08:00:07;;;;;;;4.30;3.88;;;;;;;36.13;17.84;99552.84;4878649;29;20067;-74
2023/10/03 08:02:32;;;;;;;5.85;4.22;;;;;;;36.41;17.75;99543.97;4880111;29;20044;-74
2023/10/03 08:05:02;;;;;;;7.88;4.47;;;;;;;36.74;17.38;99548.06;4880329;29;20098;-74
2023/10/03 08:07:28;;;;;;;4.63;4.13;;;;;;;36.63;17.36;99540.84;4879817;29;20056;-73
2023/10/03 08:09:54;;;;;;;5.38;4.00;;;;;;;36.13;17.80;99539.81;4880304;29;20048;-73
2023/10/03 08:12:25;;;;;;;7.32;3.83;;;;;;;36.37;17.59;99527.03;4862541;29;20048;-73
2023/10/03 08:14:52;;;;;;;6.00;3.88;;;;;;;36.29;17.32;99552.59;4874422;29;20051;-73
2023/10/03 08:17:26;;;;;;;5.68;4.63;;;;;;;35.52;17.29;99533.41;4861426;29;20043;-73
2023/10/03 08:19:51;;;;;;;4.53;3.80;;;;;;;33.66;18.66;99520.97;4861392;29;20059;-74
2023/10/03 08:22:16;;;;;;;4.07;3.70;;;;;;;31.74;20.47;99518.16;4859898;29;20036;-74
2023/10/03 08:24:44;;;;;;;5.45;3.70;;;;;;;30.35;21.49;99525.00;4844361;29;20057;-74
2023/10/03 08:27:18;;;;;;;5.90;3.72;;;;;;;29.78;22.41;99541.22;4843649;29;20048;-74
2023/10/03 08:29:45;;;;;;;5.57;3.65;;;;;;;30.74;21.99;99528.06;4860255;29;20044;-74
2023/10/03 08:32:10;;;;;;;6.70;4.00;;;;;;;32.70;20.18;99509.69;4859507;29;20049;-73
2023/10/03 08:34:43;;;;;;;4.97;3.88;;;;;;;33.63;19.13;99507.69;4844021;29;20099;-73
2023/10/03 08:37:09;;;;;;;4.65;3.80;;;;;;;34.38;18.53;99513.00;4860533;29;20060;-72
2023/10/03 08:39:34;;;;;;;6.57;4.32;;;;;;;35.35;18.05;99502.31;4843720;29;20059;-70
2023/10/03 08:42:13;;;;;;;8.45;3.78;;;;;;;36.99;16.97;99520.16;4859363;29;20037;-72
2023/10/03 08:44:51;;;;;;;4.63;4.07;;;;;;;37.19;15.86;99499.78;4859194;29;20055;-71
2023/10/03 08:47:29;;;;;;;5.03;4.30;;;;;;;38.06;15.89;99494.38;4859400;29;20044;-72
2023/10/03 08:50:29;;;;;;;8.48;4.10;;;;;;;39.39;15.95;99511.19;4843928;29;20063;-72
2023/10/03 08:53:12;;;;;;;5.18;4.20;;;;;;;38.17;15.76;99490.38;4843545;29;20056;-73
2023/10/03 08:55:39;;;;;;;6.25;4.65;;;;;;;38.02;16.06;99491.38;4860866;29;20051;-73
2023/10/03 08:58:04;;;;;;;4.93;4.43;;;;;;;37.92;16.17;99485.06;4868869;29;20057;-73
2023/10/03 09:00:40;;;;;;;6.75;4.72;;;;;;;38.29;15.83;99482.47;4868637;29;20053;-73
2023/10/03 09:03:12;;;;;;;4.97;4.03;;;;;;;38.88;15.16;99481.22;4849636;29;20055;-73
2023/10/03 09:05:41;;;;;;;6.00;4.78;;;;;;;39.16;15.21;99482.25;4848863;29;20056;-70
2023/10/03 09:08:12;;;;;;;7.00;5.00;;;;;;;39.63;14.97;99509.13;4865962;29;20048;-72
2023/10/03 09:10:51;;;;;;;6.75;5.90;;;;;;;39.47;14.62;99479.84;4864081;29;20048;-72
2023/10/03 09:13:28;;;;;;;5.45;4.63;;;;;;;38.85;15.23;99470.66;4847712;29;20056;-71
2023/10/03 09:16:07;;;;;;;7.22;5.05;;;;;;;37.22;16.05;99476.97;4863206;29;20056;-71
2023/10/03 09:18:43;;;;;;;5.78;4.32;;;;;;;36.63;16.99;99474.19;4846929;29;20059;-72
2023/10/03 09:21:29;;;;;;;6.85;4.30;;;;;;;36.64;16.86;99481.41;4864170;29;20052;-72
2023/10/03 09:24:02;;;;;;;10.10;7.45;;;;;;;37.27;16.78;99474.16;4862781;29;20047;-71
2023/10/03 09:27:07;;;;;;;10.73;7.95;;;;;;;38.43;16.53;99466.69;4862470;29;20064;-71
2023/10/03 09:29:33;;;;;;;6.82;4.95;;;;;;;37.85;16.36;99453.94;4847087;29;20345;-70
2023/10/03 09:32:25;;;;;;;6.97;4.50;;;;;;;37.78;15.96;99424.53;4863660;29;20048;-70
2023/10/03 09:35:00;;;;;;;7.45;5.25;;;;;;;37.27;16.45;99434.38;4863456;29;20052;-75
2023/10/03 09:37:28;;;;;;;5.78;4.57;;;;;;;37.26;16.57;99432.72;4863758;29;20048;-74
2023/10/03 09:40:01;;;;;;;9.63;5.05;;;;;;;37.09;16.64;99444.22;4863486;29;20048;-73
2023/10/03 09:42:31;;;;;;;9.02;5.47;;;;;;;37.08;16.54;99432.28;4863741;29;20044;-74
2023/10/03 09:44:57;;;;;;;16.27;5.75;;;;;;;37.03;16.96;99440.63;4863334;29;20048;-73
2023/10/03 09:47:30;;;;;;;6.28;4.70;;;;;;;36.42;16.86;99422.63;4846793;29;20068;-72
2023/10/03 09:50:07;;;;;;;6.87;4.90;;;;;;;35.35;17.64;99444.94;4846685;29;20056;-72
2023/10/03 09:52:33;;;;;;;8.18;5.13;;;;;;;34.35;18.48;99421.34;4863383;29;20504;-74
2023/10/03 09:55:17;;;;;;;6.82;4.40;;;;;;;33.09;19.54;99414.59;4862300;29;20056;-74
2023/10/03 09:57:45;;;;;;;11.27;5.25;;;;;;;30.89;21.27;99399.00;4863586;29;20052;-73
2023/10/03 10:00:23;;;;;;;7.22;4.72;;;;;;;29.49;22.21;99443.19;4846324;29;20075;-74
2023/10/03 10:02:50;;;;;;;11.02;4.50;;;;;;;27.72;24.37;99401.41;4863067;29;20048;-72
2023/10/03 10:05:22;;;;;;;7.32;4.60;;;;;;;26.82;25.64;99424.59;4863322;29;20055;-72
2023/10/03 10:08:08;;;;;;;8.32;4.97;;;;;;;26.90;25.68;99404.34;4862399;29;20070;-72
2023/10/03 10:10:34;;;;;;;8.50;5.75;;;;;;;26.03;26.61;99414.00;4863099;29;20044;-73
2023/10/03 10:13:34;;;;;;;7.68;4.55;;;;;;;25.55;27.74;99421.59;4860824;29;20041;-72
2023/10/03 10:16:11;;;;;;;7.00;4.53;;;;;;;24.60;28.62;99418.13;4848194;29;20068;-72
2023/10/03 10:18:43;;;;;;;8.75;4.47;;;;;;;24.16;29.78;99413.09;4878311;29;20134;-73
2023/10/03 10:21:32;;;;;;;8.65;4.88;;;;;;;23.74;30.22;99405.97;4864745;29;20056;-72
2023/10/03 10:24:16;;;;;;;9.52;4.55;;;;;;;23.26;31.10;99420.41;4866126;29;20048;-72
2023/10/03 10:26:48;;;;;;;6.45;4.30;;;;;;;22.50;31.67;99417.34;4861663;29;20053;-71
2023/10/03 10:29:19;;;;;;;10.20;4.35;;;;;;;21.93;32.90;99418.06;4857448;29;20064;-72
2023/10/03 10:31:57;;;;;;;8.45;5.35;;;;;;;21.38;33.63;99424.75;4860555;29;20059;-73
2023/10/03 10:34:22;;;;;;;8.25;4.20;;;;;;;20.93;34.12;99417.50;4845411;29;20052;-73
2023/10/03 10:37:02;;;;;;;7.22;4.40;;;;;;;20.67;34.71;99422.41;4862438;29;20055;-73
2023/10/03 10:42:59;;;;;;;10.30;4.78;;;;;;;19.77;36.91;99416.56;4862699;29;21116;-70
2023/10/03 10:45:26;;;;;;;7.45;4.45;;;;;;;19.41;37.15;99417.97;4845433;29;20045;-73
2023/10/03 10:47:54;;;;;;;10.00;5.43;;;;;;;19.21;37.53;99375.06;4862274;29;20071;-73
2023/10/03 10:50:25;;;;;;;9.20;4.22;;;;;;;19.06;37.43;99430.84;4861941;29;20458;-73
2023/10/03 10:52:53;;;;;;;10.30;4.90;;;;;;;18.91;37.71;99410.91;4846126;29;20057;-73
2023/10/03 10:55:23;;;;;;;8.75;5.00;;;;;;;18.63;38.74;99425.72;4861520;29;20052;-72
2023/10/03 10:58:12;;;;;;;9.10;4.47;;;;;;;18.62;38.08;99418.66;4861674;29;20063;-72
2023/10/03 11:00:38;;;;;;;11.20;5.03;;;;;;;18.18;38.74;99407.19;4850576;29;20060;-73
2023/10/03 11:03:04;;;;;;;16.02;4.38;;;;;;;17.81;39.72;99419.19;4845203;29;20048;-72
2023/10/03 11:05:47;;;;;;;6.22;3.67;;;;;;;17.60;40.53;99408.78;4860063;29;20060;-71
2023/10/03 11:08:12;;;;;;;9.35;4.63;;;;;;;17.48;40.56;99409.22;4860317;29;20051;-73
2023/10/03 11:10:54;;;;;;;10.43;4.80;;;;;;;17.52;40.44;99407.88;4862368;29;20157;-73
2023/10/03 11:13:21;;;;;;;8.82;4.65;;;;;;;17.43;40.71;99415.06;4860903;29;20404;-73
2023/10/03 11:15:50;;;;;;;7.70;4.25;;;;;;;17.49;40.80;99400.97;4862198;29;20542;-74
2023/10/03 11:18:17;;;;;;;9.20;4.15;;;;;;;17.32;40.92;99408.09;4862235;29;20052;-74
2023/10/03 11:20:43;;;;;;;7.63;3.83;;;;;;;17.24;41.69;99410.72;4860237;29;20053;-74
2023/10/03 11:23:16;;;;;;;9.05;4.65;;;;;;;17.23;41.45;99405.50;4860554;29;20051;-70
2023/10/03 11:25:52;;;;;;;10.60;5.35;;;;;;;17.29;41.35;99411.09;4844053;29;20057;-71
2023/10/03 11:28:17;;;;;;;7.93;4.25;;;;;;;17.06;41.64;99409.91;4861941;29;20060;-77
2023/10/03 11:30:43;;;;;;;8.02;3.70;;;;;;;16.90;42.81;99410.63;4861813;29;20048;-74
2023/10/03 11:33:08;;;;;;;9.18;4.82;;;;;;;16.95;43.09;99415.53;4858899;29;20067;-73
2023/10/03 11:35:35;;;;;;;10.75;4.53;;;;;;;17.13;42.53;99411.00;4860469;29;20059;-74
2023/10/03 11:38:05;;;;;;;6.30;3.75;;;;;;;17.33;43.03;99411.63;4861208;29;20044;-73
2023/10/03 11:40:31;;;;;;;7.63;4.10;;;;;;;17.49;42.57;99411.75;4861656;29;20045;-75
2023/10/03 11:42:59;;;;;;;9.50;3.83;;;;;;;17.66;42.15;99416.25;4861370;29;20053;-74
2023/10/03 11:45:29;;;;;;;10.50;4.05;;;;;;;17.69;41.86;99418.63;4859765;29;20041;-76
2023/10/03 11:47:59;;;;;;;8.40;4.07;;;;;;;17.67;41.57;99415.25;4861569;29;20420;-78
2023/10/03 11:50:25;;;;;;;9.90;4.72;;;;;;;17.54;41.28;99413.94;4843626;29;20044;-77
2023/10/03 11:52:51;;;;;;;11.77;5.30;;;;;;;17.40;41.80;99424.31;4860856;29;20496;-77